createdAt,value
2022-11-28T00:02:19.896Z,1030.17
2022-11-28T00:04:51.852Z,1029.98
2022-11-28T00:07:20.267Z,1029.95
2022-11-28T00:09:47.661Z,1029.97
2022-11-28T00:12:18.860Z,1029.80
2022-11-28T00:14:47.315Z,1029.69
2022-11-28T00:17:14.151Z,1029.63
2022-11-28T00:19:40.993Z,1029.65
2022-11-28T00:22:08.011Z,1029.71
2022-11-28T00:24:34.810Z,1029.63
2022-11-28T00:27:04.359Z,1029.65
2022-11-28T00:29:33.030Z,1029.66
2022-11-28T00:32:01.210Z,1029.69
2022-11-28T00:34:29.193Z,1029.65
2022-11-28T00:36:57.146Z,1029.61
2022-11-28T00:39:24.377Z,1029.52
2022-11-28T00:41:54.632Z,1029.48
2022-11-28T00:44:21.751Z,1029.47
2022-11-28T00:46:52.784Z,1029.43
2022-11-28T00:49:20.048Z,1029.33
2022-11-28T00:51:48.338Z,1029.45
2022-11-28T00:54:17.315Z,1029.36
2022-11-28T00:56:45.190Z,1029.38
2022-11-28T00:59:11.883Z,1029.50
2022-11-28T01:01:43.551Z,1029.52
2022-11-28T01:04:14.207Z,1029.60
2022-11-28T01:06:43.384Z,1029.69
2022-11-28T01:09:12.928Z,1029.71
2022-11-28T01:11:40.651Z,1029.73
2022-11-28T01:14:10.162Z,1029.74
2022-11-28T01:16:38.828Z,1029.76
2022-11-28T01:19:06.029Z,1029.61
2022-11-28T01:21:40.434Z,1029.59
2022-11-28T01:24:08.730Z,1029.57
2022-11-28T01:26:39.653Z,1029.53
2022-11-28T01:29:06.892Z,1029.44
2022-11-28T01:31:33.915Z,1029.43
2022-11-28T01:34:02.139Z,1029.52
2022-11-28T01:36:29.866Z,1029.49
2022-11-28T01:38:58.374Z,1029.47
2022-11-28T01:41:30.222Z,1029.35
2022-11-28T01:43:59.527Z,1029.18
2022-11-28T01:46:27.241Z,1029.16
2022-11-28T01:48:59.569Z,1029.05
2022-11-28T01:51:27.548Z,1029.05
2022-11-28T01:53:55.566Z,1028.99
2022-11-28T01:56:31.625Z,1028.96
2022-11-28T01:59:04.918Z,1028.92
2022-11-28T02:01:32.319Z,1028.85
2022-11-28T02:03:59.958Z,1028.78
2022-11-28T02:06:29.266Z,1028.67
2022-11-28T02:08:57.606Z,1028.72
2022-11-28T02:12:02.233Z,1028.63
2022-11-28T02:14:56.803Z,1028.65
2022-11-28T02:17:36.880Z,1028.44
2022-11-28T02:20:40.246Z,1028.46
2022-11-28T02:23:12.665Z,1028.50
2022-11-28T02:26:08.314Z,1028.40
2022-11-28T02:29:10.743Z,1028.39
2022-11-28T02:34:56.837Z,1028.35
2022-11-28T02:37:31.204Z,1028.33
2022-11-28T02:40:03.866Z,1028.29
2022-11-28T02:42:39.856Z,1028.38
2022-11-28T02:45:10.746Z,1028.30
2022-11-28T02:47:43.148Z,1028.27
2022-11-28T02:50:15.438Z,1028.31
2022-11-28T02:52:49.200Z,1028.33
2022-11-28T02:55:17.843Z,1028.23
2022-11-28T02:57:48.779Z,1028.11
2022-11-28T03:00:28.646Z,1028.10
2022-11-28T03:03:11.010Z,1028.22
2022-11-28T03:05:46.328Z,1028.30
2022-11-28T03:08:32.796Z,1028.18
2022-11-28T03:11:05.304Z,1028.18
2022-11-28T03:13:39.298Z,1028.14
2022-11-28T03:16:17.716Z,1028.13
2022-11-28T03:18:55.690Z,1028.09
2022-11-28T03:21:37.162Z,1028.13
2022-11-28T03:24:12.510Z,1028.01
2022-11-28T03:26:50.966Z,1027.86
2022-11-28T03:29:24.322Z,1028.06
2022-11-28T03:31:56.196Z,1028.00
2022-11-28T03:34:30.665Z,1028.00
2022-11-28T03:37:13.846Z,1027.93
2022-11-28T03:39:48.649Z,1027.90
2022-11-28T03:42:21.062Z,1027.76
2022-11-28T03:44:54.493Z,1027.82
2022-11-28T03:47:25.009Z,1027.93
2022-11-28T03:49:58.013Z,1028.01
2022-11-28T03:52:29.491Z,1028.00
2022-11-28T03:55:05.034Z,1027.91
2022-11-28T03:57:34.387Z,1027.79
2022-11-28T04:00:06.202Z,1027.89
2022-11-28T04:02:38.690Z,1027.93
2022-11-28T04:05:16.247Z,1027.81
2022-11-28T04:07:51.020Z,1027.71
2022-11-28T04:10:23.324Z,1027.72
2022-11-28T04:12:56.877Z,1027.71
2022-11-28T04:15:34.234Z,1027.80
2022-11-28T04:18:13.044Z,1027.70
2022-11-28T04:20:48.161Z,1027.65
2022-11-28T04:23:20.329Z,1027.61
2022-11-28T04:25:52.926Z,1027.50
2022-11-28T04:28:25.118Z,1027.53
2022-11-28T04:30:56.524Z,1027.53
2022-11-28T04:33:31.172Z,1027.51
2022-11-28T04:36:00.267Z,1027.42
2022-11-28T04:38:30.920Z,1027.50
2022-11-28T04:41:05.002Z,1027.44
2022-11-28T04:43:37.104Z,1027.48
2022-11-28T04:46:09.380Z,1027.46
2022-11-28T04:48:38.893Z,1027.39
2022-11-28T04:51:15.294Z,1027.32
2022-11-28T04:53:53.218Z,1027.20
2022-11-28T04:56:26.842Z,1027.18
2022-11-28T04:58:56.529Z,1027.36
2022-11-28T05:01:32.677Z,1027.31
2022-11-28T05:04:00.437Z,1027.36
2022-11-28T05:06:30.544Z,1027.35
2022-11-28T05:08:59.728Z,1027.38
2022-11-28T05:11:29.720Z,1027.32
2022-11-28T05:13:56.779Z,1027.28
2022-11-28T05:16:24.918Z,1027.36
2022-11-28T05:18:52.852Z,1027.34
2022-11-28T05:21:20.129Z,1027.24
2022-11-28T05:23:49.491Z,1027.14
2022-11-28T05:26:20.391Z,1027.18
2022-11-28T05:28:51.301Z,1027.24
2022-11-28T05:31:22.585Z,1027.18
2022-11-28T05:33:50.106Z,1027.16
2022-11-28T05:36:18.640Z,1027.24
2022-11-28T05:38:45.850Z,1027.24
2022-11-28T05:41:26.759Z,1027.17
2022-11-28T05:43:54.318Z,1027.11
2022-11-28T05:46:21.729Z,1027.14
2022-11-28T05:48:51.202Z,1027.19
2022-11-28T05:51:20.386Z,1027.02
2022-11-28T05:53:47.591Z,1027.04
2022-11-28T05:56:21.121Z,1026.97
2022-11-28T05:58:48.726Z,1026.94
2022-11-28T06:01:19.213Z,1026.91
2022-11-28T06:03:47.856Z,1026.92
2022-11-28T06:06:18.945Z,1026.92
2022-11-28T06:08:48.006Z,1026.85
2022-11-28T06:11:19.498Z,1026.89
2022-11-28T06:13:49.358Z,1026.90
2022-11-28T06:16:19.698Z,1026.94
2022-11-28T06:18:47.685Z,1026.87
2022-11-28T06:21:15.393Z,1027.10
2022-11-28T06:23:43.486Z,1026.89
2022-11-28T06:26:13.672Z,1027.02
2022-11-28T06:28:41.285Z,1027.12
2022-11-28T06:31:12.098Z,1027.19
2022-11-28T06:33:38.987Z,1027.22
2022-11-28T06:36:15.436Z,1027.31
2022-11-28T06:38:42.725Z,1027.32
2022-11-28T06:41:12.254Z,1027.30
2022-11-28T06:43:42.005Z,1027.22
2022-11-28T06:46:16.235Z,1027.26
2022-11-28T06:48:44.828Z,1027.33
2022-11-28T06:51:15.809Z,1027.26
2022-11-28T06:53:43.102Z,1027.13
2022-11-28T06:56:13.110Z,1027.11
2022-11-28T06:58:42.878Z,1027.01
2022-11-28T07:01:14.646Z,1027.08
2022-11-28T07:03:42.703Z,1027.02
2022-11-28T07:06:14.032Z,1027.15
2022-11-28T07:08:41.505Z,1027.12
2022-11-28T07:11:11.268Z,1026.91
2022-11-28T07:13:38.597Z,1026.87
2022-11-28T07:16:11.863Z,1026.90
2022-11-28T07:18:41.039Z,1026.82
2022-11-28T07:21:09.835Z,1026.84
2022-11-28T07:23:38.071Z,1026.76
2022-11-28T07:26:08.143Z,1026.76
2022-11-28T07:28:36.919Z,1026.65
2022-11-28T07:31:06.300Z,1026.62
2022-11-28T07:33:34.552Z,1026.63
2022-11-28T07:36:04.945Z,1026.52
2022-11-28T07:38:33.431Z,1026.50
2022-11-28T07:41:04.738Z,1026.35
2022-11-28T07:43:31.911Z,1026.34
2022-11-28T07:46:01.288Z,1026.24
2022-11-28T07:48:29.806Z,1026.15
2022-11-28T07:50:56.666Z,1026.07
2022-11-28T07:53:25.206Z,1026.07
2022-11-28T07:55:52.116Z,1026.06
2022-11-28T07:58:22.095Z,1026.06
2022-11-28T08:00:48.855Z,1026.03
2022-11-28T08:03:18.971Z,1026.01
2022-11-28T08:05:45.687Z,1025.95
2022-11-28T08:08:12.536Z,1025.91
2022-11-28T08:10:40.708Z,1025.88
2022-11-28T08:13:09.031Z,1025.87
2022-11-28T08:15:37.345Z,1025.91
2022-11-28T08:18:08.651Z,1025.82
2022-11-28T08:20:36.668Z,1025.76
2022-11-28T08:23:09.557Z,1025.77
2022-11-28T08:25:37.740Z,1025.78
2022-11-28T08:28:08.968Z,1025.66
2022-11-28T08:30:37.290Z,1025.60
2022-11-28T08:33:06.550Z,1025.59
2022-11-28T08:35:33.673Z,1025.52
2022-11-28T08:38:02.051Z,1025.52
2022-11-28T08:40:31.773Z,1025.43
2022-11-28T08:42:58.986Z,1025.40
2022-11-28T08:45:29.794Z,1025.36
2022-11-28T08:47:58.919Z,1025.43
2022-11-28T08:50:28.030Z,1025.34
2022-11-28T08:52:55.175Z,1025.39
2022-11-28T08:55:31.737Z,1025.47
2022-11-28T08:57:59.441Z,1025.52
2022-11-28T09:00:26.304Z,1025.53
2022-11-28T09:02:56.645Z,1025.51
2022-11-28T09:05:25.614Z,1025.53
2022-11-28T09:07:54.672Z,1025.49
2022-11-28T09:10:23.622Z,1025.54
2022-11-28T09:12:52.183Z,1025.46
2022-11-28T09:15:19.295Z,1025.50
2022-11-28T09:17:46.445Z,1025.49
2022-11-28T09:20:14.641Z,1025.47
2022-11-28T09:22:41.634Z,1025.34
2022-11-28T09:25:10.393Z,1025.35
2022-11-28T09:27:40.065Z,1025.42
2022-11-28T09:30:08.358Z,1025.34
2022-11-28T09:32:37.929Z,1025.17
2022-11-28T09:35:06.380Z,1025.19
2022-11-28T09:37:36.277Z,1025.14
2022-11-28T09:40:13.304Z,1025.07
2022-11-28T09:42:47.818Z,1025.04
2022-11-28T09:45:17.283Z,1025.04
2022-11-28T09:47:49.039Z,1024.91
2022-11-28T09:50:22.591Z,1025.02
2022-11-28T09:52:59.560Z,1024.91
2022-11-28T09:55:35.424Z,1024.97
2022-11-28T09:58:14.119Z,1024.85
2022-11-28T10:00:49.332Z,1024.90
2022-11-28T10:03:36.279Z,1024.85
2022-11-28T10:06:15.292Z,1024.84
2022-11-28T10:08:55.490Z,1024.78
2022-11-28T10:11:34.753Z,1024.65
2022-11-28T10:14:13.958Z,1024.54
2022-11-28T10:16:52.703Z,1024.45
2022-11-28T10:19:52.920Z,1024.42
2022-11-28T10:22:17.974Z,1024.20
2022-11-28T10:24:50.165Z,1024.09
2022-11-28T10:27:26.616Z,1024.03
2022-11-28T10:30:01.927Z,1023.83
2022-11-28T10:32:40.944Z,1023.66
2022-11-28T10:35:14.748Z,1023.63
2022-11-28T10:37:44.459Z,1023.49
2022-11-28T10:40:24.992Z,1023.71
2022-11-28T10:42:59.962Z,1023.71
2022-11-28T10:45:34.047Z,1023.70
2022-11-28T10:48:43.520Z,1023.74
2022-11-28T10:51:25.027Z,1023.86
2022-11-28T10:54:03.033Z,1023.84
2022-11-28T10:56:40.566Z,1023.85
2022-11-28T10:59:19.244Z,1023.86
2022-11-28T11:01:50.324Z,1023.75
2022-11-28T11:04:21.073Z,1023.76
2022-11-28T11:07:09.438Z,1023.80
2022-11-28T11:09:41.683Z,1023.76
2022-11-28T11:12:21.531Z,1023.67
2022-11-28T11:14:48.422Z,1023.66
2022-11-28T11:17:32.635Z,1023.57
2022-11-28T11:20:30.695Z,1023.59
2022-11-28T11:22:59.856Z,1023.55
2022-11-28T11:25:30.625Z,1023.50
2022-11-28T11:28:03.515Z,1023.42
2022-11-28T11:30:34.269Z,1023.38
2022-11-28T11:33:07.145Z,1023.39
2022-11-28T11:35:38.973Z,1023.43
2022-11-28T11:38:18.545Z,1023.43
2022-11-28T11:40:46.150Z,1023.48
2022-11-28T11:43:39.876Z,1023.46
2022-11-28T11:46:09.325Z,1023.46
2022-11-28T11:48:38.659Z,1023.40
2022-11-28T11:51:06.747Z,1023.31
2022-11-28T11:53:34.794Z,1023.17
2022-11-28T11:56:04.129Z,1023.22
2022-11-28T11:58:43.917Z,1023.11
2022-11-28T12:01:14.045Z,1023.06
2022-11-28T12:03:50.502Z,1022.91
2022-11-28T12:06:24.345Z,1022.94
2022-11-28T12:08:54.513Z,1022.89
2022-11-28T12:11:26.463Z,1022.91
2022-11-28T12:13:57.030Z,1022.81
2022-11-28T12:16:44.284Z,1022.77
2022-11-28T12:19:26.689Z,1022.69
2022-11-28T12:22:12.188Z,1022.72
2022-11-28T12:24:52.384Z,1022.67
2022-11-28T12:27:34.296Z,1022.69
2022-11-28T12:30:23.073Z,1022.78
2022-11-28T12:33:05.086Z,1022.72
2022-11-28T12:35:39.665Z,1022.62
2022-11-28T12:38:23.557Z,1022.69
2022-11-28T12:41:12.469Z,1022.66
2022-11-28T12:43:56.828Z,1022.58
2022-11-28T12:46:34.169Z,1022.61
2022-11-28T12:49:13.428Z,1022.63
2022-11-28T12:51:53.255Z,1022.58
2022-11-28T12:54:37.176Z,1022.58
2022-11-28T12:57:10.927Z,1022.64
2022-11-28T12:59:49.330Z,1022.53
2022-11-28T13:02:32.292Z,1022.59
2022-11-28T13:05:22.347Z,1022.67
2022-11-28T13:08:11.698Z,1022.83
2022-11-28T13:10:46.219Z,1022.87
2022-11-28T13:13:20.057Z,1022.83
2022-11-28T13:15:58.284Z,1022.79
2022-11-28T13:18:48.316Z,1022.70
2022-11-28T13:21:27.975Z,1022.59
2022-11-28T13:24:06.839Z,1022.67
2022-11-28T13:26:46.216Z,1022.61
2022-11-28T13:29:24.173Z,1022.69
2022-11-28T13:32:02.755Z,1022.67
2022-11-28T13:34:36.348Z,1022.70
2022-11-28T13:40:08.094Z,1022.80
2022-11-28T13:45:32.721Z,1022.71
2022-11-28T13:48:03.268Z,1022.69
2022-11-28T13:51:01.354Z,1022.73
2022-11-28T13:53:29.348Z,1022.73
2022-11-28T13:56:22.890Z,1022.75
2022-11-28T13:58:55.142Z,1022.64
2022-11-28T14:01:25.008Z,1022.60
2022-11-28T14:04:09.882Z,1022.72
2022-11-28T14:06:52.272Z,1022.73
2022-11-28T14:09:40.674Z,1022.79
2022-11-28T14:12:52.245Z,1022.74
2022-11-28T14:15:35.311Z,1022.71
2022-11-28T14:18:57.315Z,1022.62
2022-11-28T14:22:17.863Z,1022.69
2022-11-28T14:25:21.021Z,1022.62
2022-11-28T14:28:11.946Z,1022.68
2022-11-28T14:31:27.014Z,1022.65
2022-11-28T14:34:02.770Z,1022.66
2022-11-28T14:36:40.807Z,1022.66
2022-11-28T14:39:58.004Z,1022.66
2022-11-28T14:43:11.803Z,1022.63
2022-11-28T14:45:56.672Z,1022.71
2022-11-28T14:48:53.145Z,1022.75
2022-11-28T14:52:38.319Z,1022.76
2022-11-28T14:55:31.646Z,1022.69
2022-11-28T14:58:18.029Z,1022.68
2022-11-28T15:01:18.742Z,1022.67
2022-11-28T15:07:20.242Z,1022.71
2022-11-28T15:10:36.946Z,1022.77
2022-11-28T15:13:27.648Z,1022.80
2022-11-28T15:16:05.628Z,1022.87
2022-11-28T15:18:48.041Z,1022.85
2022-11-28T15:24:22.090Z,1022.89
2022-11-28T15:27:24.352Z,1022.85
2022-11-28T15:29:59.321Z,1022.87
2022-11-28T15:32:34.616Z,1022.93
2022-11-28T15:35:11.074Z,1023.02
2022-11-28T15:37:47.609Z,1023.05
2022-11-28T15:40:24.144Z,1023.04
2022-11-28T15:42:56.072Z,1023.00
2022-11-28T15:45:27.008Z,1022.96
2022-11-28T15:47:55.802Z,1022.98
2022-11-28T15:50:24.530Z,1022.97
2022-11-28T15:52:59.389Z,1022.99
2022-11-28T15:55:29.139Z,1022.95
2022-11-28T15:58:11.229Z,1022.92
2022-11-28T16:00:41.546Z,1022.95
2022-11-28T16:03:15.948Z,1022.98
2022-11-28T16:05:43.305Z,1022.97
2022-11-28T16:08:26.615Z,1022.95
2022-11-28T16:10:53.641Z,1022.91
2022-11-28T16:13:23.601Z,1022.99
2022-11-28T16:15:55.315Z,1022.99
2022-11-28T16:18:28.114Z,1023.05
2022-11-28T16:21:00.073Z,1022.95
2022-11-28T16:23:31.514Z,1023.11
2022-11-28T16:26:00.743Z,1023.16
2022-11-28T16:28:32.707Z,1023.15
2022-11-28T16:31:02.526Z,1023.18
2022-11-28T16:33:37.841Z,1023.07
2022-11-28T16:36:09.661Z,1023.16
2022-11-28T16:38:42.749Z,1023.17
2022-11-28T16:41:15.818Z,1023.14
2022-11-28T16:43:48.853Z,1023.17
2022-11-28T16:46:22.493Z,1023.15
2022-11-28T16:48:54.636Z,1023.14
2022-11-28T16:51:36.746Z,1023.09
2022-11-28T16:54:29.077Z,1023.10
2022-11-28T16:57:14.178Z,1023.17
2022-11-28T16:59:42.942Z,1023.17
2022-11-28T17:02:17.404Z,1023.25
2022-11-28T17:04:46.744Z,1023.25
2022-11-28T17:07:15.997Z,1023.22
2022-11-28T17:09:43.941Z,1023.28
2022-11-28T17:12:17.654Z,1023.29
2022-11-28T17:14:47.191Z,1023.19
2022-11-28T17:17:17.775Z,1023.27
2022-11-28T17:19:46.230Z,1023.29
2022-11-28T17:22:16.247Z,1023.31
2022-11-28T17:24:44.601Z,1023.29
2022-11-28T17:27:12.907Z,1023.30
2022-11-28T17:29:40.343Z,1023.26
2022-11-28T17:32:11.913Z,1023.26
2022-11-28T17:34:40.645Z,1023.26
2022-11-28T17:37:18.487Z,1023.46
2022-11-28T17:47:03.852Z,1023.25
2022-11-28T17:49:31.202Z,1023.24
2022-11-28T17:51:59.651Z,1023.34
2022-11-28T17:54:27.139Z,1023.34
2022-11-28T17:56:55.366Z,1023.22
2022-11-28T17:59:24.510Z,1023.37
2022-11-28T18:01:51.760Z,1023.35
2022-11-28T18:04:19.095Z,1023.30
2022-11-28T18:06:47.650Z,1023.31
2022-11-28T18:09:15.872Z,1023.37
2022-11-28T18:11:45.616Z,1023.35
2022-11-28T18:14:12.948Z,1023.37
2022-11-28T18:16:40.017Z,1023.33
2022-11-28T18:19:07.000Z,1023.28
2022-11-28T18:21:34.823Z,1023.33
2022-11-28T18:24:01.666Z,1023.26
2022-11-28T18:26:29.795Z,1023.26
2022-11-28T18:29:01.740Z,1023.32
2022-11-28T18:31:30.120Z,1023.33
2022-11-28T18:34:02.446Z,1023.39
2022-11-28T18:36:30.842Z,1023.26
2022-11-28T18:39:01.107Z,1023.27
2022-11-28T18:41:29.949Z,1023.30
2022-11-28T18:43:57.804Z,1023.30
2022-11-28T18:46:25.483Z,1023.32
2022-11-28T18:48:54.247Z,1023.30
2022-11-28T18:51:24.173Z,1023.38
2022-11-28T18:53:56.385Z,1023.36
2022-11-28T18:56:24.589Z,1023.32
2022-11-28T18:58:59.743Z,1023.25
2022-11-28T19:01:28.072Z,1023.40
2022-11-28T19:04:02.742Z,1023.41
2022-11-28T19:06:30.482Z,1023.33
2022-11-28T19:09:00.329Z,1023.34
2022-11-28T19:11:27.917Z,1023.39
2022-11-28T19:13:58.390Z,1023.47
2022-11-28T19:16:30.528Z,1023.44
2022-11-28T19:18:59.353Z,1023.43
2022-11-28T19:21:28.177Z,1023.43
2022-11-28T19:24:02.869Z,1023.45
2022-11-28T19:26:31.410Z,1023.46
2022-11-28T19:29:00.047Z,1023.44
2022-11-28T19:31:28.760Z,1023.41
2022-11-28T19:34:01.746Z,1023.36
2022-11-28T19:36:32.010Z,1023.42
2022-11-28T19:39:01.808Z,1023.41
2022-11-28T19:41:29.437Z,1023.38
2022-11-28T19:43:58.995Z,1023.45
2022-11-28T19:46:31.900Z,1023.42
2022-11-28T19:49:05.363Z,1023.46
2022-11-28T19:51:32.929Z,1023.45
2022-11-28T19:54:03.478Z,1023.55
2022-11-28T19:56:31.429Z,1023.48
2022-11-28T19:59:00.667Z,1023.58
2022-11-28T20:01:30.858Z,1023.46
2022-11-28T20:04:00.169Z,1023.46
2022-11-28T20:06:30.059Z,1023.54
2022-11-28T20:09:00.588Z,1023.56
2022-11-28T20:11:30.378Z,1023.59
2022-11-28T20:14:02.094Z,1023.60
2022-11-28T20:16:31.711Z,1023.58
2022-11-28T20:18:59.212Z,1023.60
2022-11-28T20:21:26.379Z,1023.60
2022-11-28T20:23:56.378Z,1023.58
2022-11-28T20:26:24.904Z,1023.57
2022-11-28T20:28:51.850Z,1023.54
2022-11-28T20:31:24.924Z,1023.55
2022-11-28T20:33:53.629Z,1023.58
2022-11-28T20:36:24.601Z,1023.54
2022-11-28T20:38:53.366Z,1023.57
2022-11-28T20:41:22.185Z,1023.61
2022-11-28T20:43:52.791Z,1023.63
2022-11-28T20:46:23.106Z,1023.66
2022-11-28T20:48:52.981Z,1023.63
2022-11-28T20:51:21.774Z,1023.64
2022-11-28T20:53:50.912Z,1023.59
2022-11-28T20:56:19.112Z,1023.56
2022-11-28T20:58:47.249Z,1023.63
2022-11-28T21:01:16.618Z,1023.64
2022-11-28T21:03:46.256Z,1023.64
2022-11-28T21:06:13.568Z,1023.58
2022-11-28T21:08:40.763Z,1023.59
2022-11-28T21:11:09.032Z,1023.65
2022-11-28T21:13:36.012Z,1023.66
2022-11-28T21:16:06.469Z,1023.64
2022-11-28T21:18:33.995Z,1023.60
2022-11-28T21:21:06.892Z,1023.50
2022-11-28T21:23:33.807Z,1023.65
2022-11-28T21:26:05.450Z,1023.69
2022-11-28T21:28:36.716Z,1023.59
2022-11-28T21:31:05.361Z,1023.62
2022-11-28T21:33:34.730Z,1023.57
2022-11-28T21:36:06.053Z,1023.58
2022-11-28T21:38:33.532Z,1023.51
2022-11-28T21:41:01.028Z,1023.46
2022-11-28T21:43:28.848Z,1023.38
2022-11-28T21:46:00.495Z,1023.50
2022-11-28T21:48:30.154Z,1023.47
2022-11-28T21:50:58.173Z,1023.52
2022-11-28T21:53:28.058Z,1023.50
2022-11-28T21:55:55.557Z,1023.57
2022-11-28T21:58:26.692Z,1023.50
2022-11-28T22:00:57.693Z,1023.55
2022-11-28T22:03:24.951Z,1023.41
2022-11-28T22:05:52.142Z,1023.46
2022-11-28T22:08:20.404Z,1023.45
2022-11-28T22:10:51.486Z,1023.49
2022-11-28T22:13:20.133Z,1023.36
2022-11-28T22:15:48.227Z,1023.49
2022-11-28T22:18:15.283Z,1023.49
2022-11-28T22:20:44.974Z,1023.46
2022-11-28T22:23:14.804Z,1023.48
2022-11-28T22:25:51.501Z,1023.50
2022-11-28T22:28:20.939Z,1023.56
2022-11-28T22:30:48.816Z,1023.52
2022-11-28T22:33:19.269Z,1023.51
2022-11-28T22:35:45.990Z,1023.46
2022-11-28T22:38:13.199Z,1023.50
2022-11-28T22:40:40.203Z,1023.51
2022-11-28T22:43:09.706Z,1023.52
2022-11-28T22:45:36.737Z,1023.47
2022-11-28T22:48:03.890Z,1023.45
2022-11-28T22:50:37.335Z,1023.33
2022-11-28T22:53:07.588Z,1023.29
2022-11-28T22:55:36.124Z,1023.24
2022-11-28T22:58:02.977Z,1023.41
2022-11-28T23:00:34.799Z,1023.26
2022-11-28T23:03:01.877Z,1023.28
2022-11-28T23:05:28.797Z,1023.27
2022-11-28T23:07:55.726Z,1023.18
2022-11-28T23:10:22.673Z,1023.23
2022-11-28T23:12:49.438Z,1023.10
2022-11-28T23:15:17.983Z,1023.08
2022-11-28T23:17:46.177Z,1023.15
2022-11-28T23:20:15.786Z,1023.10
2022-11-28T23:22:42.522Z,1023.16
2022-11-28T23:25:11.813Z,1023.10
2022-11-28T23:27:38.570Z,1023.08
2022-11-28T23:30:07.203Z,1023.12
2022-11-28T23:32:34.197Z,1023.18
2022-11-28T23:35:02.663Z,1023.11
2022-11-28T23:37:30.862Z,1023.08
2022-11-28T23:39:59.100Z,1023.05
2022-11-28T23:42:25.841Z,1022.98
2022-11-28T23:44:52.776Z,1023.04
2022-11-28T23:47:19.701Z,1022.91
2022-11-28T23:49:46.709Z,1022.95
2022-11-28T23:52:15.983Z,1022.81
2022-11-28T23:54:43.177Z,1022.92
2022-11-28T23:57:12.601Z,1022.83
2022-11-28T23:59:39.537Z,1022.94
